createdAt,value
2022-10-17T00:00:49.887Z,4.78
2022-10-17T00:03:17.020Z,5.10
2022-10-17T00:05:46.452Z,5.03
2022-10-17T00:08:15.851Z,4.83
2022-10-17T00:10:43.261Z,5.03
2022-10-17T00:13:11.343Z,5.53
2022-10-17T00:15:38.336Z,4.80
2022-10-17T00:18:05.265Z,4.63
2022-10-17T00:20:35.624Z,4.57
2022-10-17T00:23:02.547Z,5.18
2022-10-17T00:25:29.555Z,4.10
2022-10-17T00:27:56.475Z,4.47
2022-10-17T00:30:23.379Z,4.50
2022-10-17T00:32:53.369Z,5.03
2022-10-17T00:35:20.790Z,4.85
2022-10-17T00:37:48.775Z,5.05
2022-10-17T00:40:15.877Z,5.05
2022-10-17T00:42:42.712Z,4.90
2022-10-17T00:45:24.312Z,5.00
2022-10-17T00:48:00.181Z,4.72
2022-10-17T00:50:28.315Z,4.97
2022-10-17T00:53:01.652Z,5.22
2022-10-17T00:55:33.265Z,4.93
2022-10-17T00:58:03.374Z,4.93
2022-10-17T01:00:30.912Z,4.82
2022-10-17T01:02:58.525Z,4.85
2022-10-17T01:05:25.570Z,5.90
2022-10-17T01:07:54.295Z,4.50
2022-10-17T01:13:08.700Z,4.82
2022-10-17T01:15:35.607Z,5.07
2022-10-17T01:18:29.526Z,5.30
2022-10-17T01:21:20.069Z,5.00
2022-10-17T01:24:18.829Z,5.50
2022-10-17T01:26:58.285Z,5.18
2022-10-17T01:29:28.353Z,4.47
2022-10-17T01:32:00.244Z,4.28
2022-10-17T01:34:44.662Z,5.45
2022-10-17T01:37:44.355Z,4.60
2022-10-17T01:40:22.487Z,4.70
2022-10-17T01:42:58.967Z,4.93
2022-10-17T01:45:33.812Z,4.88
2022-10-17T01:48:15.441Z,4.72
2022-10-17T01:50:48.519Z,4.80
2022-10-17T01:53:22.219Z,4.88
2022-10-17T01:55:51.481Z,4.80
2022-10-17T01:58:43.634Z,4.70
2022-10-17T02:01:13.027Z,5.00
2022-10-17T02:03:43.791Z,4.67
2022-10-17T02:06:10.931Z,4.38
2022-10-17T02:08:47.666Z,4.55
2022-10-17T02:11:21.620Z,4.68
2022-10-17T02:16:56.764Z,4.17
2022-10-17T02:19:42.067Z,4.45
2022-10-17T02:22:40.186Z,4.40
2022-10-17T02:25:49.181Z,4.93
2022-10-17T02:28:24.529Z,4.57
2022-10-17T02:31:07.034Z,5.47
2022-10-17T02:33:42.438Z,4.70
2022-10-17T02:36:15.369Z,4.90
2022-10-17T02:38:44.323Z,4.90
2022-10-17T02:41:17.218Z,4.63
2022-10-17T02:43:47.057Z,4.60
2022-10-17T02:46:21.350Z,4.65
2022-10-17T02:49:11.540Z,4.65
2022-10-17T02:51:44.366Z,5.07
2022-10-17T02:54:34.536Z,4.90
2022-10-17T02:57:09.939Z,4.40
2022-10-17T02:59:38.546Z,4.68
2022-10-17T03:02:06.981Z,4.80
2022-10-17T03:04:34.768Z,4.65
2022-10-17T03:07:01.776Z,5.10
2022-10-17T03:09:28.970Z,5.30
2022-10-17T03:11:56.030Z,4.72
2022-10-17T03:14:23.186Z,4.82
2022-10-17T03:16:50.179Z,5.20
2022-10-17T03:19:20.461Z,4.50
2022-10-17T03:21:47.959Z,4.60
2022-10-17T03:24:14.975Z,4.68
2022-10-17T03:26:41.925Z,4.40
2022-10-17T03:29:09.017Z,5.18
2022-10-17T03:31:36.580Z,5.00
2022-10-17T03:34:05.756Z,4.40
2022-10-17T03:36:32.800Z,5.60
2022-10-17T03:39:01.200Z,5.45
2022-10-17T03:41:29.297Z,5.22
2022-10-17T03:43:56.214Z,5.45
2022-10-17T03:46:24.116Z,5.00
2022-10-17T03:48:51.340Z,4.55
2022-10-17T03:51:18.435Z,5.13
2022-10-17T03:53:50.628Z,4.40
2022-10-17T03:56:20.479Z,5.03
2022-10-17T03:58:56.232Z,4.73
2022-10-17T04:01:24.325Z,5.25
2022-10-17T04:03:56.492Z,5.32
2022-10-17T04:06:24.324Z,4.93
2022-10-17T04:08:51.412Z,5.55
2022-10-17T04:11:28.211Z,5.13
2022-10-17T04:13:59.896Z,5.00
2022-10-17T04:16:28.735Z,5.22
2022-10-17T04:19:00.521Z,5.43
2022-10-17T04:21:31.339Z,5.20
2022-10-17T04:24:03.710Z,4.97
2022-10-17T04:27:00.147Z,5.43
2022-10-17T04:29:29.964Z,5.28
2022-10-17T04:32:11.871Z,5.43
2022-10-17T04:34:57.423Z,5.35
2022-10-17T04:37:24.473Z,4.80
2022-10-17T04:39:53.875Z,4.45
2022-10-17T04:42:20.955Z,5.97
2022-10-17T04:44:49.424Z,4.75
2022-10-17T04:47:19.107Z,6.93
2022-10-17T04:49:46.636Z,5.10
2022-10-17T04:52:16.163Z,4.78
2022-10-17T04:54:44.972Z,5.05
2022-10-17T04:57:16.874Z,5.15
2022-10-17T04:59:51.855Z,6.00
2022-10-17T05:02:27.556Z,5.10
2022-10-17T05:04:55.437Z,5.20
2022-10-17T05:07:22.455Z,5.20
2022-10-17T05:09:52.176Z,5.30
2022-10-17T05:12:19.492Z,5.07
2022-10-17T05:14:50.121Z,5.90
2022-10-17T05:17:17.040Z,5.40
2022-10-17T05:19:44.729Z,5.72
2022-10-17T05:22:14.122Z,5.15
2022-10-17T05:24:44.965Z,5.05
2022-10-17T05:27:13.503Z,5.10
2022-10-17T05:29:40.669Z,4.93
2022-10-17T05:32:17.955Z,5.10
2022-10-17T05:34:45.280Z,5.47
2022-10-17T05:37:12.261Z,5.10
2022-10-17T05:39:42.056Z,5.47
2022-10-17T05:42:09.846Z,6.15
2022-10-17T05:44:46.181Z,5.47
2022-10-17T05:47:21.746Z,4.63
2022-10-17T05:49:52.266Z,4.90
2022-10-17T05:52:26.521Z,5.03
2022-10-17T05:55:06.210Z,5.13
2022-10-17T05:57:33.498Z,5.40
2022-10-17T06:00:01.326Z,5.80
2022-10-17T06:02:41.886Z,5.82
2022-10-17T06:05:10.610Z,5.80
2022-10-17T06:07:37.953Z,5.55
2022-10-17T06:10:07.193Z,4.90
2022-10-17T06:12:34.703Z,5.47
2022-10-17T06:15:02.125Z,4.75
2022-10-17T06:17:30.983Z,4.73
2022-10-17T06:19:58.327Z,5.05
2022-10-17T06:22:25.383Z,6.38
2022-10-17T06:24:55.189Z,5.53
2022-10-17T06:27:24.862Z,5.70
2022-10-17T06:29:52.199Z,5.33
2022-10-17T06:32:19.206Z,4.75
2022-10-17T06:34:47.334Z,5.15
2022-10-17T06:37:15.349Z,5.10
2022-10-17T06:39:43.373Z,5.63
2022-10-17T06:42:13.199Z,5.30
2022-10-17T06:45:09.638Z,5.20
2022-10-17T06:47:50.703Z,5.55
2022-10-17T06:51:04.726Z,5.07
2022-10-17T06:53:40.585Z,4.80
2022-10-17T06:56:26.450Z,5.23
2022-10-17T06:59:09.994Z,5.07
2022-10-17T07:01:40.701Z,5.20
2022-10-17T07:04:13.734Z,5.93
2022-10-17T07:06:41.209Z,6.40
2022-10-17T07:09:20.627Z,5.43
2022-10-17T07:11:47.696Z,5.50
2022-10-17T07:14:18.180Z,5.50
2022-10-17T07:16:46.809Z,5.47
2022-10-17T07:19:18.353Z,5.90
2022-10-17T07:21:45.625Z,5.50
2022-10-17T07:24:13.322Z,5.60
2022-10-17T07:26:44.914Z,5.03
2022-10-17T07:29:12.196Z,5.50
2022-10-17T07:31:45.671Z,5.88
2022-10-17T07:34:13.217Z,5.60
2022-10-17T07:36:41.668Z,5.60
2022-10-17T07:39:09.358Z,5.95
2022-10-17T07:41:37.844Z,5.55
2022-10-17T07:44:05.319Z,5.45
2022-10-17T07:46:36.968Z,5.33
2022-10-17T07:49:05.494Z,5.15
2022-10-17T07:51:34.098Z,5.68
2022-10-17T07:54:01.121Z,5.53
2022-10-17T07:56:29.701Z,5.45
2022-10-17T08:01:29.620Z,5.43
2022-10-17T08:03:56.587Z,5.45
2022-10-17T08:06:23.513Z,5.22
2022-10-17T08:08:52.972Z,5.90
2022-10-17T08:11:19.947Z,6.80
2022-10-17T08:13:46.799Z,5.95
2022-10-17T08:16:14.208Z,5.38
2022-10-17T08:18:42.687Z,5.60
2022-10-17T08:21:13.150Z,5.80
2022-10-17T08:23:40.562Z,5.40
2022-10-17T08:26:10.770Z,5.93
2022-10-17T08:28:39.990Z,6.07
2022-10-17T08:31:13.314Z,6.10
2022-10-17T08:33:41.939Z,6.15
2022-10-17T08:36:09.923Z,6.43
2022-10-17T08:38:43.137Z,5.80
2022-10-17T08:41:22.278Z,7.03
2022-10-17T08:44:19.241Z,7.20
2022-10-17T08:47:21.248Z,6.30
2022-10-17T08:49:59.831Z,5.97
2022-10-17T08:52:54.879Z,6.25
2022-10-17T08:55:31.619Z,6.18
2022-10-17T08:57:58.708Z,6.32
2022-10-17T09:00:28.643Z,5.97
2022-10-17T09:03:49.774Z,5.80
2022-10-17T09:06:19.376Z,6.10
2022-10-17T09:09:14.099Z,5.80
2022-10-17T09:11:48.895Z,6.57
2022-10-17T09:14:44.984Z,6.38
2022-10-17T09:17:51.970Z,8.37
2022-10-17T09:20:31.092Z,7.45
2022-10-17T09:23:06.982Z,8.10
2022-10-17T09:25:43.026Z,7.07
2022-10-17T09:28:09.956Z,7.50
2022-10-17T09:30:47.442Z,7.90
2022-10-17T09:33:28.786Z,7.68
2022-10-17T09:36:08.991Z,7.68
2022-10-17T09:38:49.584Z,6.95
2022-10-17T09:41:57.505Z,8.13
2022-10-17T09:44:25.131Z,7.80
2022-10-17T09:47:19.825Z,8.27
2022-10-17T09:49:48.723Z,7.82
2022-10-17T09:52:17.585Z,7.88
2022-10-17T09:54:48.299Z,8.05
2022-10-17T09:57:17.173Z,7.70
2022-10-17T10:00:04.824Z,8.85
2022-10-17T10:02:41.010Z,8.65
2022-10-17T10:05:25.950Z,8.10
2022-10-17T10:08:05.994Z,7.53
2022-10-17T10:10:33.459Z,7.97
2022-10-17T10:13:15.877Z,8.00
2022-10-17T10:15:46.104Z,7.78
2022-10-17T10:18:34.853Z,7.70
2022-10-17T10:21:20.666Z,7.80
2022-10-17T10:23:59.825Z,7.97
2022-10-17T10:26:32.018Z,7.32
2022-10-17T10:29:03.347Z,7.95
2022-10-17T10:31:40.134Z,7.88
2022-10-17T10:34:24.223Z,7.38
2022-10-17T10:36:53.824Z,7.43
2022-10-17T10:39:42.285Z,7.47
2022-10-17T10:42:21.431Z,7.43
2022-10-17T10:44:49.877Z,7.88
2022-10-17T10:47:23.802Z,7.80
2022-10-17T10:49:53.824Z,6.97
2022-10-17T10:52:38.184Z,7.60
2022-10-17T10:55:36.720Z,8.02
2022-10-17T10:58:36.807Z,8.30
2022-10-17T11:01:15.699Z,7.72
2022-10-17T11:04:02.884Z,7.77
2022-10-17T11:06:38.041Z,8.10
2022-10-17T11:09:05.061Z,8.95
2022-10-17T11:11:42.693Z,7.82
2022-10-17T11:14:23.620Z,8.07
2022-10-17T11:16:58.279Z,8.43
2022-10-17T11:19:41.560Z,8.02
2022-10-17T11:22:15.381Z,8.90
2022-10-17T11:24:59.751Z,8.25
2022-10-17T11:27:30.552Z,8.65
2022-10-17T11:29:58.701Z,8.80
2022-10-17T11:32:38.710Z,8.27
2022-10-17T11:35:44.508Z,7.95
2022-10-17T11:38:52.968Z,7.72
2022-10-17T11:41:29.868Z,7.78
2022-10-17T11:44:27.375Z,8.40
2022-10-17T11:46:59.887Z,7.78
2022-10-17T11:49:41.928Z,8.50
2022-10-17T11:52:31.619Z,8.65
2022-10-17T11:55:16.945Z,8.70
2022-10-17T11:57:56.155Z,9.50
2022-10-17T12:00:39.313Z,8.57
2022-10-17T12:03:52.811Z,9.30
2022-10-17T12:06:37.083Z,8.85
2022-10-17T12:09:30.191Z,8.52
2022-10-17T12:11:58.228Z,9.30
2022-10-17T12:14:47.005Z,8.40
2022-10-17T12:17:39.004Z,9.90
2022-10-17T12:20:21.680Z,11.05
2022-10-17T12:22:51.616Z,9.85
2022-10-17T12:25:24.619Z,9.37
2022-10-17T12:28:02.643Z,9.13
2022-10-17T12:30:30.404Z,9.57
2022-10-17T12:33:08.274Z,9.75
2022-10-17T12:35:38.399Z,9.32
2022-10-17T12:38:23.025Z,9.27
2022-10-17T12:40:53.680Z,9.55
2022-10-17T12:43:30.096Z,9.75
2022-10-17T12:46:04.255Z,9.18
2022-10-17T12:48:34.350Z,9.95
2022-10-17T12:53:59.209Z,9.93
2022-10-17T12:56:47.951Z,9.40
2022-10-17T12:59:22.704Z,9.90
2022-10-17T13:01:55.285Z,9.60
2022-10-17T13:04:22.814Z,10.70
2022-10-17T13:06:54.719Z,10.65
2022-10-17T13:09:38.001Z,9.65
2022-10-17T13:12:14.289Z,9.85
2022-10-17T13:14:43.766Z,11.57
2022-10-17T13:17:30.874Z,9.20
2022-10-17T13:19:58.654Z,8.68
2022-10-17T13:22:28.957Z,9.35
2022-10-17T13:25:16.597Z,9.38
2022-10-17T13:27:44.510Z,9.77
2022-10-17T13:30:33.873Z,10.07
2022-10-17T13:33:18.741Z,10.00
2022-10-17T13:36:00.095Z,9.70
2022-10-17T13:38:32.728Z,11.15
2022-10-17T13:41:22.977Z,10.43
2022-10-17T13:43:50.707Z,10.37
2022-10-17T13:46:39.337Z,10.32
2022-10-17T13:49:34.187Z,10.07
2022-10-17T13:52:04.238Z,9.52
2022-10-17T13:54:43.105Z,10.27
2022-10-17T13:57:26.690Z,9.53
2022-10-17T14:00:21.414Z,10.63
2022-10-17T14:02:49.104Z,10.45
2022-10-17T14:05:19.883Z,9.95
2022-10-17T14:08:12.087Z,9.65
2022-10-17T14:10:42.661Z,9.10
2022-10-17T14:13:22.963Z,9.23
2022-10-17T14:15:50.833Z,9.90
2022-10-17T14:18:24.236Z,9.43
2022-10-17T14:23:44.451Z,9.40
2022-10-17T14:26:22.185Z,9.60
2022-10-17T14:29:39.067Z,10.10
2022-10-17T14:32:10.998Z,9.32
2022-10-17T14:34:43.245Z,9.68
2022-10-17T14:37:13.391Z,9.67
2022-10-17T14:39:55.844Z,10.35
2022-10-17T14:42:26.726Z,10.32
2022-10-17T14:44:57.710Z,10.55
2022-10-17T14:47:42.671Z,10.57
2022-10-17T14:50:28.910Z,10.20
2022-10-17T14:53:05.624Z,11.00
2022-10-17T14:55:36.047Z,10.77
2022-10-17T14:58:16.952Z,11.02
2022-10-17T15:00:44.497Z,10.75
2022-10-17T15:03:11.641Z,10.13
2022-10-17T15:05:40.147Z,11.02
2022-10-17T15:08:18.659Z,10.80
2022-10-17T15:10:47.320Z,9.90
2022-10-17T15:13:33.552Z,10.68
2022-10-17T15:16:02.013Z,11.37
2022-10-17T15:18:29.171Z,10.77
2022-10-17T15:21:04.836Z,10.23
2022-10-17T15:23:40.034Z,10.80
2022-10-17T15:26:24.137Z,10.10
2022-10-17T15:28:52.066Z,11.40
2022-10-17T15:31:24.098Z,10.75
2022-10-17T15:33:51.193Z,10.43
2022-10-17T15:36:27.153Z,11.50
2022-10-17T15:38:56.797Z,11.10
2022-10-17T15:41:26.210Z,10.73
2022-10-17T15:43:53.354Z,10.30
2022-10-17T15:46:24.148Z,10.82
2022-10-17T15:48:51.921Z,9.85
2022-10-17T15:51:19.659Z,10.80
2022-10-17T15:53:47.066Z,10.73
2022-10-17T15:56:28.815Z,10.65
2022-10-17T15:58:55.851Z,10.73
2022-10-17T16:01:28.451Z,10.68
2022-10-17T16:03:56.095Z,10.48
2022-10-17T16:06:24.344Z,10.63
2022-10-17T16:08:52.043Z,10.45
2022-10-17T16:11:41.649Z,11.02
2022-10-17T16:14:18.229Z,10.63
2022-10-17T16:16:46.421Z,11.07
2022-10-17T16:19:13.491Z,10.30
2022-10-17T16:21:41.915Z,10.88
2022-10-17T16:24:12.661Z,11.00
2022-10-17T16:26:41.397Z,10.38
2022-10-17T16:29:10.188Z,10.05
2022-10-17T16:31:41.971Z,10.33
2022-10-17T16:34:13.795Z,10.50
2022-10-17T16:36:41.733Z,10.80
2022-10-17T16:39:11.368Z,10.77
2022-10-17T16:41:39.430Z,10.48
2022-10-17T16:44:08.775Z,9.33
2022-10-17T16:46:38.665Z,10.75
2022-10-17T16:49:06.722Z,10.45
2022-10-17T16:51:37.013Z,11.00
2022-10-17T16:54:04.817Z,11.13
2022-10-17T16:56:33.034Z,10.87
2022-10-17T16:59:01.058Z,10.23
2022-10-17T17:01:31.643Z,10.60
2022-10-17T17:03:59.078Z,10.43
2022-10-17T17:06:35.690Z,11.15
2022-10-17T17:09:03.105Z,10.40
2022-10-17T17:11:30.170Z,11.48
2022-10-17T17:13:58.166Z,10.25
2022-10-17T17:16:27.135Z,11.13
2022-10-17T17:18:59.251Z,9.70
2022-10-17T17:21:27.953Z,9.90
2022-10-17T17:23:58.559Z,10.27
2022-10-17T17:26:26.887Z,10.13
2022-10-17T17:28:54.389Z,9.82
2022-10-17T17:31:23.999Z,10.02
2022-10-17T17:33:52.008Z,10.00
2022-10-17T17:36:23.900Z,10.02
2022-10-17T17:38:53.698Z,9.80
2022-10-17T17:41:21.679Z,10.20
2022-10-17T17:43:49.567Z,10.35
2022-10-17T17:46:23.053Z,10.97
2022-10-17T17:48:51.249Z,9.20
2022-10-17T17:51:24.261Z,10.65
2022-10-17T17:53:54.611Z,9.90
2022-10-17T17:56:30.503Z,9.90
2022-10-17T17:59:00.585Z,9.90
2022-10-17T18:01:36.548Z,9.80
2022-10-17T18:04:05.311Z,10.23
2022-10-17T18:06:32.189Z,10.30
2022-10-17T18:08:59.347Z,10.43
2022-10-17T18:11:27.520Z,9.53
2022-10-17T18:14:08.570Z,10.15
2022-10-17T18:16:37.615Z,10.73
2022-10-17T18:19:07.513Z,10.13
2022-10-17T18:21:38.077Z,9.73
2022-10-17T18:24:06.450Z,10.00
2022-10-17T18:26:33.673Z,10.13
2022-10-17T18:29:00.764Z,9.85
2022-10-17T18:31:35.781Z,9.82
2022-10-17T18:34:05.212Z,10.13
2022-10-17T18:36:37.723Z,10.40
2022-10-17T18:39:05.817Z,11.18
2022-10-17T18:41:33.961Z,10.60
2022-10-17T18:44:05.382Z,10.05
2022-10-17T18:46:41.064Z,11.10
2022-10-17T18:49:13.748Z,10.13
2022-10-17T18:51:43.265Z,9.88
2022-10-17T18:54:20.692Z,10.32
2022-10-17T18:56:50.031Z,10.05
2022-10-17T18:59:18.918Z,9.68
2022-10-17T19:01:46.610Z,9.83
2022-10-17T19:04:13.778Z,10.30
2022-10-17T19:06:41.387Z,10.05
2022-10-17T19:09:10.525Z,9.77
2022-10-17T19:11:42.283Z,9.73
2022-10-17T19:14:14.188Z,9.53
2022-10-17T19:16:49.226Z,10.05
2022-10-17T19:19:23.388Z,10.40
2022-10-17T19:21:51.324Z,9.93
2022-10-17T19:24:24.684Z,9.40
2022-10-17T19:26:56.888Z,9.57
2022-10-17T19:29:31.213Z,9.90
2022-10-17T19:31:58.448Z,10.07
2022-10-17T19:34:25.508Z,9.77
2022-10-17T19:36:52.867Z,9.63
2022-10-17T19:39:22.982Z,10.00
2022-10-17T19:41:50.133Z,9.60
2022-10-17T19:44:18.490Z,11.13
2022-10-17T19:46:47.140Z,10.43
2022-10-17T19:49:18.024Z,10.18
2022-10-17T19:51:45.283Z,9.73
2022-10-17T19:54:18.435Z,10.20
2022-10-17T19:56:48.582Z,10.20
2022-10-17T19:59:18.838Z,11.40
2022-10-17T20:01:46.411Z,9.98
2022-10-17T20:04:13.528Z,9.43
2022-10-17T20:06:41.388Z,9.70
2022-10-17T20:09:13.868Z,10.50
2022-10-17T20:11:43.871Z,11.13
2022-10-17T20:14:10.983Z,11.60
2022-10-17T20:16:38.065Z,10.17
2022-10-17T20:19:07.942Z,9.63
2022-10-17T20:21:36.681Z,10.57
2022-10-17T20:24:08.883Z,10.93
2022-10-17T20:26:38.980Z,11.68
2022-10-17T20:29:11.633Z,10.87
2022-10-17T20:31:40.806Z,11.10
2022-10-17T20:34:13.271Z,10.93
2022-10-17T20:36:40.681Z,9.90
2022-10-17T20:39:08.282Z,10.30
2022-10-17T20:41:35.540Z,11.20
2022-10-17T20:44:02.697Z,10.48
2022-10-17T20:46:36.840Z,10.70
2022-10-17T20:49:07.035Z,10.88
2022-10-17T20:51:35.399Z,10.63
2022-10-17T20:54:03.170Z,10.40
2022-10-17T21:01:11.074Z,9.90
2022-10-17T21:03:42.377Z,9.35
2022-10-17T21:06:12.976Z,9.77
2022-10-17T21:08:40.259Z,9.97
2022-10-17T21:11:13.621Z,10.25
2022-10-17T21:13:41.408Z,10.32
2022-10-17T21:16:14.181Z,9.35
2022-10-17T21:18:41.451Z,10.18
2022-10-17T21:21:12.973Z,9.67
2022-10-17T21:23:41.525Z,8.98
2022-10-17T21:26:10.178Z,9.43
2022-10-17T21:28:37.656Z,9.57
2022-10-17T21:31:20.901Z,9.82
2022-10-17T21:33:53.330Z,9.73
2022-10-17T21:36:21.476Z,8.35
2022-10-17T21:38:50.050Z,9.27
2022-10-17T21:41:20.899Z,8.60
2022-10-17T21:43:52.065Z,8.18
2022-10-17T21:46:19.925Z,9.30
2022-10-17T21:48:48.201Z,8.35
2022-10-17T21:51:17.435Z,8.38
2022-10-17T21:53:44.602Z,8.40
2022-10-17T21:56:14.541Z,7.40
2022-10-17T21:58:42.594Z,7.67
2022-10-17T22:01:11.122Z,7.72
2022-10-17T22:03:44.100Z,8.48
2022-10-17T22:06:38.776Z,8.23
2022-10-17T22:09:07.022Z,7.63
2022-10-17T22:11:35.630Z,7.97
2022-10-17T22:14:05.605Z,7.95
2022-10-17T22:16:33.768Z,7.43
2022-10-17T22:19:06.631Z,7.75
2022-10-17T22:21:36.134Z,6.90
2022-10-17T22:24:06.616Z,6.53
2022-10-17T22:26:35.378Z,7.30
2022-10-17T22:29:03.179Z,7.85
2022-10-17T22:31:30.265Z,6.35
2022-10-17T22:33:57.483Z,7.15
2022-10-17T22:36:24.533Z,6.77
2022-10-17T22:38:51.658Z,6.13
2022-10-17T22:41:19.031Z,6.93
2022-10-17T22:43:46.080Z,5.82
2022-10-17T22:46:16.016Z,7.03
2022-10-17T22:48:43.707Z,6.57
2022-10-17T22:51:11.047Z,6.18
2022-10-17T22:53:38.125Z,6.65
2022-10-17T22:56:12.362Z,6.43
2022-10-17T22:58:39.417Z,6.75
2022-10-17T23:01:08.232Z,6.37
2022-10-17T23:03:35.396Z,6.15
2022-10-17T23:06:03.021Z,6.53
2022-10-17T23:08:30.673Z,6.03
2022-10-17T23:10:58.024Z,6.30
2022-10-17T23:13:25.125Z,6.60
2022-10-17T23:15:56.956Z,6.45
2022-10-17T23:18:25.631Z,6.57
2022-10-17T23:20:55.982Z,6.78
2022-10-17T23:23:23.170Z,6.68
2022-10-17T23:25:50.616Z,6.80
2022-10-17T23:28:18.167Z,7.63
2022-10-17T23:30:45.612Z,7.03
2022-10-17T23:33:13.841Z,6.65
2022-10-17T23:35:41.286Z,6.63
2022-10-17T23:38:08.450Z,6.83
2022-10-17T23:40:35.711Z,6.38
2022-10-17T23:43:03.734Z,6.55
2022-10-17T23:45:34.784Z,7.35
2022-10-17T23:48:05.300Z,6.38
2022-10-17T23:50:32.316Z,7.10
2022-10-17T23:52:59.319Z,6.10
2022-10-17T23:55:26.268Z,6.90
2022-10-17T23:57:53.469Z,6.72
